Time;durP1;ratioP1;P1;durP2;ratioP2;P2;SDS_P1;SDS_P2;PMS_P1;PMS_P2;Temp;Humidity;BMP_temperature;BMP_pressure;BME280_temperature;BME280_humidity;BME280_pressure;Samples;Min_cycle;Max_cycle;Signal;HPM_P1;HPM_P2
2023/10/31 00:01:04;;;;;;;1.67;0.82;;;;;;;10.27;100.00;99685.28;5086672;28;20322;-76
2023/10/31 00:03:29;;;;;;;2.35;0.93;;;;;;;10.26;100.00;99686.22;5089451;28;20346;-76
2023/10/31 00:05:54;;;;;;;2.33;0.90;;;;;;;10.25;100.00;99688.00;5087187;28;20036;-76
2023/10/31 00:08:20;;;;;;;2.45;0.85;;;;;;;10.23;100.00;99674.16;5089915;28;20396;-75
2023/10/31 00:10:46;;;;;;;2.83;0.88;;;;;;;10.21;100.00;99672.59;5087057;28;20231;-75
2023/10/31 00:13:11;;;;;;;2.42;1.05;;;;;;;10.21;100.00;99676.03;5091048;28;20040;-76
2023/10/31 00:15:37;;;;;;;3.00;0.90;;;;;;;10.21;100.00;99681.25;5081283;28;20039;-76
2023/10/31 00:18:02;;;;;;;2.25;0.85;;;;;;;10.21;100.00;99675.19;5067288;28;20060;-76
2023/10/31 00:20:28;;;;;;;2.50;1.10;;;;;;;10.18;100.00;99674.41;5086645;28;20058;-75
2023/10/31 00:22:53;;;;;;;2.42;1.23;;;;;;;10.19;100.00;99675.28;5085811;28;20036;-75
2023/10/31 00:25:19;;;;;;;3.00;1.50;;;;;;;10.19;100.00;99670.88;5089233;28;20216;-76
2023/10/31 00:27:44;;;;;;;2.67;1.50;;;;;;;10.20;100.00;99676.94;5084639;28;20024;-76
2023/10/31 00:30:10;;;;;;;4.40;1.67;;;;;;;10.21;100.00;99683.03;5083352;28;20074;-75
2023/10/31 00:32:35;;;;;;;5.85;2.33;;;;;;;10.19;100.00;99675.28;5097207;28;20109;-75
2023/10/31 00:35:01;;;;;;;2.88;2.05;;;;;;;10.19;100.00;99676.13;5098920;28;20040;-75
2023/10/31 00:37:26;;;;;;;3.95;1.92;;;;;;;10.22;100.00;99687.31;5069665;28;20036;-75
2023/10/31 00:39:52;;;;;;;3.38;2.03;;;;;;;10.22;100.00;99687.31;5070309;28;20032;-75
2023/10/31 00:42:17;;;;;;;2.00;1.90;;;;;;;10.24;100.00;99688.94;5098527;28;20036;-74
2023/10/31 00:44:43;;;;;;;2.60;1.90;;;;;;;10.29;100.00;99686.88;5095980;28;20036;-74
2023/10/31 00:47:08;;;;;;;2.33;1.55;;;;;;;10.33;100.00;99696.28;5099138;28;20235;-74
2023/10/31 00:49:33;;;;;;;4.53;2.22;;;;;;;10.36;100.00;99692.66;5081975;28;20315;-75
2023/10/31 00:51:59;;;;;;;3.17;1.95;;;;;;;10.38;100.00;99699.47;5087300;28;20368;-75
2023/10/31 00:54:24;;;;;;;2.65;2.00;;;;;;;10.39;100.00;99705.56;5080939;28;20040;-75
2023/10/31 00:56:49;;;;;;;2.05;1.75;;;;;;;10.39;100.00;99705.56;5092110;28;20047;-75
2023/10/31 00:59:15;;;;;;;2.75;2.45;;;;;;;10.38;100.00;99709.94;5088394;28;20099;-75
2023/10/31 01:01:40;;;;;;;8.38;3.50;;;;;;;10.36;100.00;99709.19;5083807;28;20378;-75
2023/10/31 01:04:06;;;;;;;5.57;2.58;;;;;;;10.36;100.00;99716.19;5079903;28;20344;-75
2023/10/31 01:06:31;;;;;;;4.18;3.00;;;;;;;10.36;100.00;99716.19;5082881;28;20128;-75
2023/10/31 01:08:56;;;;;;;5.55;2.90;;;;;;;10.35;100.00;99717.97;5095373;28;20093;-75
2023/10/31 01:11:22;;;;;;;2.90;2.70;;;;;;;10.35;100.00;99722.34;5097354;28;20032;-75
2023/10/31 01:13:47;;;;;;;4.90;3.30;;;;;;;10.35;100.00;99733.69;5084236;28;20653;-75
2023/10/31 01:16:12;;;;;;;3.83;2.53;;;;;;;10.35;100.00;99727.59;5079692;28;20110;-75
2023/10/31 01:18:38;;;;;;;3.72;2.53;;;;;;;10.35;100.00;99732.81;5096511;28;20224;-75
2023/10/31 01:21:03;;;;;;;8.18;3.83;;;;;;;10.35;100.00;99738.91;5098702;28;20032;-75
2023/10/31 01:23:28;;;;;;;5.55;3.47;;;;;;;10.35;100.00;99740.66;5096931;28;20051;-75
2023/10/31 01:25:54;;;;;;;3.35;2.92;;;;;;;10.35;100.00;99745.91;5096699;28;20089;-76
2023/10/31 01:28:19;;;;;;;3.13;2.67;;;;;;;10.35;100.00;99746.78;5085600;28;20243;-75
2023/10/31 01:30:45;;;;;;;5.65;3.45;;;;;;;10.35;100.00;99751.13;5067126;28;20019;-75
2023/10/31 01:33:10;;;;;;;3.42;3.13;;;;;;;10.35;100.00;99751.13;5097508;28;20059;-76
2023/10/31 01:35:35;;;;;;;6.35;2.70;;;;;;;10.35;100.00;99752.00;5097690;28;20412;-75
2023/10/31 01:38:01;;;;;;;3.47;2.85;;;;;;;10.37;100.00;99759.78;5096830;28;20312;-75
2023/10/31 01:40:26;;;;;;;3.10;2.90;;;;;;;10.37;100.00;99758.00;5098197;28;20036;-75
2023/10/31 01:42:51;;;;;;;2.90;2.70;;;;;;;10.37;100.00;99754.53;5096598;28;20072;-76
2023/10/31 01:45:17;;;;;;;2.53;2.33;;;;;;;10.36;100.00;99760.69;5067215;28;20081;-76
2023/10/31 01:47:46;;;;;;;2.70;2.50;;;;;;;10.37;100.00;99771.06;5088506;28;20030;-75
2023/10/31 01:50:11;;;;;;;;;;;;;;;10.33;100.00;99769.56;5090620;28;20406;-75
2023/10/31 01:52:37;;;;;;;1.90;1.70;;;;;;;10.32;100.00;99775.72;5092828;28;19923;-75
2023/10/31 01:55:04;;;;;;;2.50;1.77;;;;;;;10.32;100.00;99769.66;5095950;28;20109;-75
2023/10/31 01:57:30;;;;;;;1.40;1.33;;;;;;;10.33;100.00;99774.81;5096391;28;20040;-75
2023/10/31 01:59:55;;;;;;;1.90;1.80;;;;;;;10.32;100.00;99775.72;5067478;28;20443;-75
2023/10/31 02:02:58;;;;;;;2.80;1.65;;;;;;;10.32;100.00;99782.75;5027956;28;20219;-75
2023/10/31 02:05:24;;;;;;;2.63;2.42;;;;;;;10.33;100.00;99787.88;4995287;28;20045;-75
2023/10/31 02:07:49;;;;;;;4.22;2.88;;;;;;;10.34;100.00;99791.34;5064708;28;20051;-75
2023/10/31 02:10:14;;;;;;;3.47;3.08;;;;;;;10.34;100.00;99788.72;5078153;28;20169;-75
2023/10/31 02:12:40;;;;;;;4.05;3.58;;;;;;;10.35;100.00;99798.25;5072466;28;20027;-74
2023/10/31 02:15:06;;;;;;;3.45;3.17;;;;;;;10.37;100.00;99793.78;5095746;28;20106;-74
2023/10/31 02:17:31;;;;;;;3.42;3.20;;;;;;;10.37;100.00;99793.78;5097664;28;20040;-74
2023/10/31 02:19:57;;;;;;;2.88;2.50;;;;;;;10.38;100.00;99788.44;5082250;28;20103;-75
2023/10/31 02:22:23;;;;;;;2.22;2.03;;;;;;;10.38;100.00;99793.69;5079533;28;20036;-74
2023/10/31 02:24:48;;;;;;;1.80;1.70;;;;;;;10.40;100.00;99795.38;5088870;28;20042;-74
2023/10/31 02:27:13;;;;;;;1.90;1.70;;;;;;;10.40;100.00;99790.16;5082540;28;20055;-75
2023/10/31 02:29:40;;;;;;;1.70;1.30;;;;;;;10.40;100.00;99793.59;5077090;28;20108;-75
2023/10/31 02:32:05;;;;;;;3.30;1.15;;;;;;;10.40;100.00;99798.84;5089510;28;20048;-75
2023/10/31 02:34:30;;;;;;;1.50;1.00;;;;;;;10.42;100.00;99799.59;5080768;28;20048;-75
2023/10/31 02:36:56;;;;;;;2.45;1.45;;;;;;;10.43;100.00;99811.75;5081324;28;20331;-75
2023/10/31 02:39:21;;;;;;;1.63;1.15;;;;;;;10.44;100.00;99810.84;5096899;28;20153;-74
2023/10/31 02:41:47;;;;;;;3.13;1.10;;;;;;;10.44;100.00;99812.59;5094599;28;20036;-75
2023/10/31 02:44:15;;;;;;;1.00;0.90;;;;;;;10.44;100.00;99818.69;5092842;28;20201;-75
2023/10/31 02:46:40;;;;;;;1.73;1.00;;;;;;;10.44;100.00;99815.22;5097544;28;20031;-75
2023/10/31 02:49:06;;;;;;;0.80;0.80;;;;;;;10.44;100.00;99813.47;5077244;28;20051;-75
2023/10/31 02:51:31;;;;;;;0.90;0.90;;;;;;;10.44;100.00;99823.06;5094798;28;20031;-74
2023/10/31 02:53:57;;;;;;;4.78;1.58;;;;;;;10.42;100.00;99820.53;5083803;28;20028;-74
2023/10/31 02:56:23;;;;;;;1.90;0.77;;;;;;;10.43;100.00;99816.16;5092937;28;20047;-74
2023/10/31 02:58:48;;;;;;;2.15;0.90;;;;;;;10.42;100.00;99820.53;5088412;28;20104;-74
2023/10/31 03:01:14;;;;;;;1.30;0.80;;;;;;;10.42;100.00;99810.06;5082104;28;20040;-74
2023/10/31 03:03:39;;;;;;;0.95;0.82;;;;;;;10.42;100.00;99823.16;5090603;28;20031;-74
2023/10/31 03:06:05;;;;;;;0.82;0.80;;;;;;;10.42;100.00;99820.53;5077718;28;20039;-74
2023/10/31 03:08:30;;;;;;;2.83;1.10;;;;;;;10.43;100.00;99818.78;5081877;28;20354;-74
2023/10/31 03:10:56;;;;;;;2.60;1.02;;;;;;;10.43;100.00;99816.16;5058949;28;20028;-74
2023/10/31 03:13:21;;;;;;;1.95;0.95;;;;;;;10.42;100.00;99809.22;5078973;28;20036;-75
2023/10/31 03:15:47;;;;;;;1.98;0.90;;;;;;;10.40;100.00;99822.38;5058588;28;20279;-74
2023/10/31 03:18:14;;;;;;;2.25;0.93;;;;;;;10.37;100.00;99822.59;5061529;28;20055;-74
2023/10/31 03:20:39;;;;;;;1.20;0.75;;;;;;;10.38;100.00;99834.72;5096349;28;20040;-74
2023/10/31 03:23:05;;;;;;;0.95;0.75;;;;;;;10.37;100.00;99838.28;5090587;28;20050;-74
2023/10/31 03:25:30;;;;;;;1.40;0.60;;;;;;;10.33;100.00;99842.84;5076744;28;20040;-74
2023/10/31 03:27:56;;;;;;;1.55;0.75;;;;;;;10.34;100.00;99839.28;5089078;28;20040;-75
2023/10/31 03:30:21;;;;;;;0.63;0.57;;;;;;;10.34;100.00;99849.75;5094383;28;20040;-75
2023/10/31 03:32:46;;;;;;;0.80;0.47;;;;;;;10.35;100.00;99845.34;5092368;28;20032;-75
2023/10/31 03:35:12;;;;;;;0.75;0.43;;;;;;;10.36;100.00;99855.75;5099344;28;20036;-75
2023/10/31 03:37:41;;;;;;;1.83;0.60;;;;;;;10.34;100.00;99848.91;5088943;28;20028;-74
2023/10/31 03:40:10;;;;;;;0.52;0.50;;;;;;;10.33;100.00;99853.31;5076550;28;20137;-74
2023/10/31 03:42:35;;;;;;;3.95;0.70;;;;;;;10.31;100.00;99844.69;5080383;28;20042;-74
2023/10/31 03:45:01;;;;;;;1.20;0.60;;;;;;;10.30;100.00;99842.16;5071182;28;20103;-74
2023/10/31 03:47:26;;;;;;;2.25;0.70;;;;;;;10.27;100.00;99840.53;5081447;28;20633;-74
2023/10/31 03:49:51;;;;;;;1.50;0.70;;;;;;;10.26;100.00;99845.84;5088326;28;20048;-75
2023/10/31 03:52:17;;;;;;;2.40;0.55;;;;;;;10.24;100.00;99845.94;5095639;28;20040;-75
2023/10/31 03:54:43;;;;;;;1.60;0.40;;;;;;;10.24;100.00;99847.69;5098931;28;20039;-75
2023/10/31 03:57:08;;;;;;;0.40;0.40;;;;;;;10.23;100.00;99844.25;5100234;28;20028;-75
2023/10/31 03:59:33;;;;;;;0.38;0.30;;;;;;;10.23;100.00;99852.09;5098455;28;20319;-75
2023/10/31 04:01:58;;;;;;;0.30;0.30;;;;;;;10.24;100.00;99850.31;5094978;28;20085;-75
2023/10/31 04:04:24;;;;;;;1.55;0.45;;;;;;;10.23;100.00;99852.09;5080718;28;20070;-75
2023/10/31 04:06:49;;;;;;;0.65;0.30;;;;;;;10.23;100.00;99846.03;5099813;28;20046;-75
2023/10/31 04:09:14;;;;;;;0.52;0.40;;;;;;;10.21;100.00;99858.34;5079974;28;20027;-75
2023/10/31 04:11:41;;;;;;;1.10;0.50;;;;;;;10.17;100.00;99865.53;5099495;28;20032;-75
2023/10/31 04:14:06;;;;;;;0.43;0.30;;;;;;;10.14;100.00;99869.13;5097744;28;20046;-75
2023/10/31 04:16:32;;;;;;;0.28;0.28;;;;;;;10.15;100.00;99875.19;5096683;28;20059;-75
2023/10/31 04:18:57;;;;;;;0.70;0.40;;;;;;;10.14;100.00;99884.81;5090068;28;20078;-75
2023/10/31 04:21:22;;;;;;;1.63;0.40;;;;;;;10.13;100.00;99877.94;5099296;28;20158;-75
2023/10/31 04:23:48;;;;;;;0.38;0.20;;;;;;;10.11;100.00;99879.75;5092677;28;20056;-75
2023/10/31 04:26:13;;;;;;;0.85;0.22;;;;;;;10.09;100.00;99881.63;5080731;28;20040;-75
2023/10/31 04:28:39;;;;;;;1.98;0.40;;;;;;;10.07;100.00;99886.09;5084909;28;20090;-75
2023/10/31 04:31:04;;;;;;;2.35;0.45;;;;;;;10.07;100.00;99885.25;5080925;28;20307;-75
2023/10/31 04:33:29;;;;;;;1.25;0.25;;;;;;;10.08;100.00;99898.25;5098728;28;20045;-75
2023/10/31 04:35:55;;;;;;;1.45;0.68;;;;;;;10.07;100.00;99898.34;5094971;28;20040;-75
2023/10/31 04:38:20;;;;;;;1.92;0.65;;;;;;;10.07;100.00;99900.94;5098889;28;20099;-75
2023/10/31 04:40:45;;;;;;;0.90;0.60;;;;;;;10.05;100.00;99903.63;5096396;28;20273;-75
2023/10/31 04:43:12;;;;;;;1.27;0.88;;;;;;;10.06;100.00;99904.47;5097971;28;20127;-75
2023/10/31 04:45:37;;;;;;;2.65;1.20;;;;;;;10.05;100.00;99903.63;5096353;28;20095;-75
2023/10/31 04:48:02;;;;;;;2.00;1.65;;;;;;;10.06;100.00;99900.09;5098436;28;20061;-75
2023/10/31 04:50:28;;;;;;;1.92;1.73;;;;;;;10.05;100.00;99905.41;5093411;28;20031;-75
2023/10/31 04:52:53;;;;;;;4.80;1.90;;;;;;;10.04;100.00;99904.59;5086360;28;20235;-75
2023/10/31 04:55:18;;;;;;;2.78;1.90;;;;;;;10.02;100.00;99913.41;5081676;28;20097;-75
2023/10/31 04:57:44;;;;;;;5.65;2.75;;;;;;;10.01;100.00;99909.13;5079175;28;20043;-75
2023/10/31 05:00:10;;;;;;;2.75;2.42;;;;;;;10.00;100.00;99916.13;5089829;28;20040;-75
2023/10/31 05:02:35;;;;;;;3.78;2.75;;;;;;;9.98;100.00;99924.03;5079655;28;20040;-75
2023/10/31 05:05:01;;;;;;;2.80;2.60;;;;;;;9.99;100.00;99930.97;5086198;28;20071;-75
2023/10/31 05:07:26;;;;;;;3.20;2.67;;;;;;;9.97;100.00;99932.81;5080040;28;20321;-75
2023/10/31 05:09:51;;;;;;;3.00;2.70;;;;;;;9.97;100.00;99938.06;5086151;28;20035;-75
2023/10/31 05:12:17;;;;;;;3.80;2.25;;;;;;;9.96;100.00;99938.13;5089692;28;20040;-75
2023/10/31 05:14:42;;;;;;;2.83;2.28;;;;;;;9.95;100.00;99944.28;5080311;28;20351;-75
2023/10/31 05:17:07;;;;;;;3.58;2.50;;;;;;;9.94;100.00;99943.44;5096697;28;20039;-75
2023/10/31 05:19:33;;;;;;;2.85;2.47;;;;;;;9.93;100.00;99939.16;5090275;28;20104;-75
2023/10/31 05:21:58;;;;;;;3.50;2.70;;;;;;;9.93;100.00;99951.38;5079713;28;20335;-75
2023/10/31 05:24:23;;;;;;;2.42;2.13;;;;;;;9.92;100.00;99945.28;5079372;28;20041;-75
2023/10/31 05:26:49;;;;;;;3.90;2.25;;;;;;;9.93;100.00;99940.91;5093935;28;20032;-75
2023/10/31 05:29:14;;;;;;;3.03;2.58;;;;;;;9.93;100.00;99952.22;5079846;28;20086;-75
2023/10/31 05:31:41;;;;;;;2.75;2.15;;;;;;;9.93;100.00;99960.06;5096801;28;20338;-75
2023/10/31 05:34:06;;;;;;;3.47;2.13;;;;;;;9.92;100.00;99957.53;5081963;28;20077;-75
2023/10/31 05:36:32;;;;;;;2.72;2.20;;;;;;;9.93;100.00;99959.22;5081910;28;20052;-75
2023/10/31 05:38:57;;;;;;;2.35;2.15;;;;;;;9.94;100.00;99966.13;5093947;28;20271;-75
2023/10/31 05:41:23;;;;;;;2.78;2.15;;;;;;;9.93;100.00;99959.22;5094854;28;20070;-75
2023/10/31 05:43:48;;;;;;;1.83;1.63;;;;;;;9.94;100.00;99955.69;5090649;28;20039;-75
2023/10/31 05:46:14;;;;;;;4.70;1.23;;;;;;;9.89;100.00;99958.53;5080080;28;20036;-75
2023/10/31 05:48:41;;;;;;;3.45;1.30;;;;;;;9.89;100.00;99963.75;5080282;28;20102;-75
2023/10/31 05:51:16;;;;;;;3.40;1.10;;;;;;;9.87;100.00;99960.38;5078532;28;20282;-75
2023/10/31 05:53:44;;;;;;;1.02;0.95;;;;;;;9.86;100.00;99963.94;5089569;28;20031;-75
2023/10/31 05:56:11;;;;;;;2.42;1.10;;;;;;;9.86;100.00;99963.94;5090832;28;20059;-75
2023/10/31 05:58:37;;;;;;;2.53;0.90;;;;;;;9.87;100.00;99968.22;5077665;28;20381;-75
2023/10/31 06:01:03;;;;;;;5.00;1.38;;;;;;;9.89;100.00;99971.59;5078350;28;20376;-75
2023/10/31 06:03:28;;;;;;;1.75;0.88;;;;;;;9.90;100.00;99964.63;5077972;28;20040;-75
2023/10/31 06:05:54;;;;;;;1.27;0.85;;;;;;;9.91;100.00;99966.28;5077951;28;20089;-75
2023/10/31 06:08:19;;;;;;;2.50;0.88;;;;;;;9.91;100.00;99966.28;5086343;28;20073;-75
2023/10/31 06:10:44;;;;;;;1.08;0.88;;;;;;;9.93;100.00;99969.66;5093320;28;20223;-75
2023/10/31 06:13:10;;;;;;;2.67;0.73;;;;;;;9.93;100.00;99974.91;5097903;28;20235;-75
2023/10/31 06:15:35;;;;;;;1.55;0.95;;;;;;;9.90;100.00;99980.31;5089275;28;20036;-75
2023/10/31 06:18:00;;;;;;;2.65;1.10;;;;;;;9.89;100.00;99982.06;5075682;28;20227;-75
2023/10/31 06:20:26;;;;;;;1.08;0.82;;;;;;;9.89;100.00;99976.84;5078197;28;20040;-75
2023/10/31 06:22:51;;;;;;;1.35;0.90;;;;;;;9.86;100.00;99982.25;5060663;28;20035;-75
2023/10/31 06:25:16;;;;;;;1.52;0.80;;;;;;;9.86;100.00;99983.97;5070748;28;20036;-75
2023/10/31 06:27:42;;;;;;;0.68;0.68;;;;;;;9.84;100.00;99991.06;5077281;28;20039;-75
2023/10/31 06:30:08;;;;;;;1.10;0.68;;;;;;;9.84;100.00;99993.69;5080605;28;20067;-75
2023/10/31 06:32:33;;;;;;;1.17;0.90;;;;;;;9.82;100.00;99991.13;5078624;28;20024;-75
2023/10/31 06:34:58;;;;;;;0.73;0.70;;;;;;;9.79;100.00;99997.38;5096676;28;20111;-75
2023/10/31 06:37:24;;;;;;;1.13;1.00;;;;;;;9.79;100.00;99992.16;5097409;28;20034;-75
2023/10/31 06:39:49;;;;;;;0.90;0.90;;;;;;;9.79;100.00;99999.16;5096650;28;20058;-75
2023/10/31 06:42:14;;;;;;;0.60;0.60;;;;;;;9.80;100.00;99998.22;5085778;28;20036;-75
2023/10/31 06:44:40;;;;;;;3.03;1.00;;;;;;;9.79;100.00;100007.00;5081317;28;20037;-75
2023/10/31 06:47:05;;;;;;;1.95;1.10;;;;;;;9.78;100.00;100006.13;5085821;28;20071;-75
2023/10/31 06:49:30;;;;;;;1.10;0.80;;;;;;;9.80;100.00;100009.56;5078157;28;20331;-75
2023/10/31 06:51:56;;;;;;;2.35;1.10;;;;;;;9.79;100.00;100014.84;5075667;28;20428;-75
2023/10/31 06:54:21;;;;;;;0.88;0.88;;;;;;;9.80;100.00;100030.47;5084558;28;20052;-75
2023/10/31 06:56:47;;;;;;;1.02;0.93;;;;;;;9.82;100.00;100032.16;5092747;28;20027;-75
2023/10/31 06:59:12;;;;;;;1.58;1.20;;;;;;;9.84;100.00;100025.94;5095109;28;20312;-75
2023/10/31 07:01:37;;;;;;;1.60;0.90;;;;;;;9.86;100.00;100039.78;5077700;28;20028;-75
2023/10/31 07:04:03;;;;;;;1.80;1.25;;;;;;;9.88;100.00;100035.31;5075969;28;20044;-75
2023/10/31 07:06:29;;;;;;;3.33;1.40;;;;;;;9.88;100.00;100031.84;5077970;28;20029;-75
2023/10/31 07:08:54;;;;;;;2.75;1.27;;;;;;;9.89;100.00;100034.38;5084459;28;20059;-75
2023/10/31 07:11:19;;;;;;;4.05;1.58;;;;;;;9.90;100.00;100037.84;5095987;28;20235;-75
2023/10/31 07:13:45;;;;;;;3.28;1.45;;;;;;;9.90;100.00;100043.09;5090895;28;20051;-75
2023/10/31 07:16:10;;;;;;;1.50;1.30;;;;;;;9.90;100.00;100049.16;5076908;28;20032;-75
2023/10/31 07:18:36;;;;;;;3.28;1.70;;;;;;;9.92;100.00;100049.91;5070558;28;20032;-75
2023/10/31 07:21:01;;;;;;;4.85;1.65;;;;;;;9.92;100.00;100049.91;5087596;28;20032;-75
2023/10/31 07:23:27;;;;;;;1.88;1.63;;;;;;;9.91;100.00;100052.59;5084271;28;20028;-75
2023/10/31 07:25:52;;;;;;;1.40;1.30;;;;;;;9.92;100.00;100060.38;5076382;28;20223;-75
2023/10/31 07:28:18;;;;;;;4.88;2.30;;;;;;;9.93;100.00;100069.94;5093471;28;20193;-75
2023/10/31 07:30:43;;;;;;;3.55;1.95;;;;;;;9.94;100.00;100068.16;5077754;28;20032;-75
2023/10/31 07:33:09;;;;;;;4.60;1.75;;;;;;;9.95;100.00;100067.22;5081895;28;20043;-75
2023/10/31 07:35:34;;;;;;;2.75;2.10;;;;;;;9.96;100.00;100069.75;5080502;28;20047;-75
2023/10/31 07:37:59;;;;;;;6.82;2.00;;;;;;;9.96;100.00;100068.91;5092018;28;20044;-75
2023/10/31 07:40:25;;;;;;;4.13;1.92;;;;;;;9.98;100.00;100078.38;5095673;28;20274;-75
2023/10/31 07:42:51;;;;;;;3.28;1.90;;;;;;;10.00;100.00;100075.69;5088323;28;20041;-75
2023/10/31 07:45:16;;;;;;;4.05;2.58;;;;;;;10.00;100.00;100070.44;5064491;28;20024;-75
2023/10/31 07:47:42;;;;;;;2.85;2.28;;;;;;;10.00;100.00;100065.22;5079920;28;20035;-75
2023/10/31 07:50:07;;;;;;;4.47;2.30;;;;;;;10.01;100.00;100061.69;5089567;28;20098;-75
2023/10/31 07:52:33;;;;;;;3.92;2.67;;;;;;;10.02;100.00;100063.38;5076281;28;20047;-75
2023/10/31 07:54:58;;;;;;;3.45;2.95;;;;;;;10.02;100.00;100070.38;5081940;28;20350;-74
2023/10/31 07:57:23;;;;;;;3.80;2.97;;;;;;;10.04;100.00;100071.13;5090131;28;20040;-75
2023/10/31 07:59:49;;;;;;;3.60;2.60;;;;;;;10.06;100.00;100069.28;5081613;28;20046;-75
2023/10/31 08:02:14;;;;;;;3.20;2.50;;;;;;;10.08;100.00;100075.31;5080296;28;20036;-75
2023/10/31 08:04:39;;;;;;;2.75;2.55;;;;;;;10.08;100.00;100077.94;5090923;28;20099;-74
2023/10/31 08:07:05;;;;;;;3.20;2.90;;;;;;;10.08;100.00;100081.38;5085778;28;20180;-75
2023/10/31 08:09:30;;;;;;;2.70;2.50;;;;;;;10.08;100.00;100077.94;5083433;28;20017;-75
2023/10/31 08:11:55;;;;;;;3.08;2.88;;;;;;;10.09;100.00;100084.84;5080634;28;20035;-75
2023/10/31 08:14:22;;;;;;;3.95;3.38;;;;;;;10.09;100.00;100077.81;5084512;28;20037;-75
2023/10/31 08:16:47;;;;;;;6.80;4.18;;;;;;;10.10;100.00;100087.38;5096061;28;20039;-75
2023/10/31 08:19:14;;;;;;;5.47;4.55;;;;;;;10.12;100.00;100088.16;5090354;28;20108;-75
2023/10/31 08:21:39;;;;;;;5.00;4.35;;;;;;;10.14;100.00;100088.91;5098038;28;20247;-75
2023/10/31 08:24:05;;;;;;;4.50;4.10;;;;;;;10.17;100.00;100083.53;5094101;28;20036;-75
2023/10/31 08:26:34;;;;;;;5.55;4.93;;;;;;;10.22;100.00;100092.91;5093631;28;20553;-75
2023/10/31 08:28:59;;;;;;;;;;;;;;;10.23;100.00;100099.84;5092091;28;20562;-75
2023/10/31 08:31:24;;;;;;;6.32;5.63;;;;;;;10.27;100.00;100104.81;5093099;28;19947;-75
2023/10/31 08:33:50;;;;;;;6.53;5.85;;;;;;;10.32;100.00;100109.88;5089993;28;20044;-75
2023/10/31 08:36:15;;;;;;;11.68;8.13;;;;;;;10.34;100.00;100108.84;5080507;28;20032;-75
2023/10/31 08:38:40;;;;;;;12.48;7.10;;;;;;;10.37;100.00;100107.88;5089081;28;20048;-75
2023/10/31 08:41:06;;;;;;;14.52;9.27;;;;;;;10.40;100.00;100112.09;5086557;28;20232;-75
2023/10/31 08:43:31;;;;;;;9.73;7.70;;;;;;;10.43;100.00;100104.09;5079119;28;20036;-75
2023/10/31 08:45:57;;;;;;;10.73;8.18;;;;;;;10.44;100.00;100109.25;5088829;28;20130;-75
2023/10/31 08:48:22;;;;;;;9.38;7.20;;;;;;;10.47;100.00;100110.84;5088646;28;20085;-75
2023/10/31 08:50:48;;;;;;;13.65;7.65;;;;;;;10.47;100.00;100109.06;5091800;28;20035;-75
2023/10/31 08:53:14;;;;;;;9.43;7.47;;;;;;;10.48;100.00;100118.63;5095375;28;20036;-75
2023/10/31 08:55:43;;;;;;;9.38;7.13;;;;;;;10.50;100.00;100115.94;5088813;28;20378;-75
2023/10/31 08:58:09;;;;;;;13.50;7.35;;;;;;;10.52;100.00;100120.16;5086477;28;20355;-75
2023/10/31 09:00:34;;;;;;;10.60;6.70;;;;;;;10.53;100.00;100124.47;5090772;28;20037;-75
2023/10/31 09:02:59;;;;;;;5.93;5.28;;;;;;;10.55;100.00;100127.00;5084159;28;20301;-75
2023/10/31 09:05:25;;;;;;;6.70;4.90;;;;;;;10.55;100.00;100124.38;5082744;28;20090;-75
2023/10/31 09:07:51;;;;;;;7.32;4.60;;;;;;;10.57;100.00;100130.41;5083478;28;20036;-75
2023/10/31 09:10:16;;;;;;;5.75;4.55;;;;;;;10.59;100.00;100136.41;5085686;28;20035;-75
2023/10/31 09:12:41;;;;;;;5.80;4.57;;;;;;;10.61;100.00;100141.56;5085455;28;20085;-74
2023/10/31 09:15:07;;;;;;;4.55;4.15;;;;;;;10.61;100.00;100144.19;5082103;28;20047;-75
2023/10/31 09:17:32;;;;;;;4.10;3.50;;;;;;;10.60;100.00;100153.78;5081253;28;20043;-75
2023/10/31 09:19:59;;;;;;;5.75;3.65;;;;;;;10.60;100.00;100147.72;5081382;28;20032;-75
2023/10/31 09:22:24;;;;;;;4.25;3.17;;;;;;;10.61;100.00;100152.88;5085237;28;20031;-75
2023/10/31 09:24:50;;;;;;;3.03;2.50;;;;;;;10.61;100.00;100160.72;5081743;28;20255;-75
2023/10/31 09:27:15;;;;;;;3.85;2.60;;;;;;;10.61;100.00;100159.91;5083739;28;20089;-75
2023/10/31 09:29:40;;;;;;;2.63;2.28;;;;;;;10.60;100.00;100158.19;5083942;28;20043;-75
2023/10/31 09:32:06;;;;;;;3.33;2.03;;;;;;;10.59;100.00;100159.09;5085170;28;20102;-75
2023/10/31 09:34:32;;;;;;;3.80;2.33;;;;;;;10.59;100.00;100161.72;5082145;28;20035;-75
2023/10/31 09:36:58;;;;;;;5.10;2.00;;;;;;;10.59;100.00;100159.09;5095313;28;20385;-75
2023/10/31 09:39:23;;;;;;;2.63;2.08;;;;;;;10.58;100.00;100163.50;5091173;28;20095;-75
2023/10/31 09:41:49;;;;;;;3.67;2.30;;;;;;;10.59;100.00;100166.94;5095196;28;20058;-75
2023/10/31 09:44:14;;;;;;;2.50;2.20;;;;;;;10.63;100.00;100160.66;5082204;28;20101;-75
2023/10/31 09:46:40;;;;;;;3.45;2.47;;;;;;;10.66;100.00;100163.09;5079968;28;20059;-75
2023/10/31 09:49:08;;;;;;;2.80;2.25;;;;;;;10.67;100.00;100165.63;5091487;28;20028;-75
2023/10/31 09:51:33;;;;;;;3.55;2.20;;;;;;;10.69;100.00;100169.03;5084070;28;20047;-75
2023/10/31 09:54:01;;;;;;;4.63;2.33;;;;;;;10.70;100.00;100172.50;5085821;28;20059;-75
2023/10/31 09:56:34;;;;;;;3.40;2.70;;;;;;;10.70;100.00;100188.22;5088111;28;20077;-75
2023/10/31 09:59:03;;;;;;;4.75;2.80;;;;;;;10.69;100.00;100184.72;5085643;28;20035;-75
2023/10/31 10:01:29;;;;;;;3.70;2.72;;;;;;;10.69;100.00;100184.72;5086647;28;20024;-75
2023/10/31 10:03:55;;;;;;;5.45;3.53;;;;;;;10.71;100.00;100182.91;5083421;28;20043;-75
2023/10/31 10:06:23;;;;;;;10.88;5.10;;;;;;;10.72;100.00;100183.75;5093960;28;20059;-75
2023/10/31 10:08:48;;;;;;;6.90;4.28;;;;;;;10.73;100.00;100199.38;5092472;28;20046;-75
2023/10/31 10:11:14;;;;;;;8.93;4.15;;;;;;;10.74;100.00;100203.69;5094790;28;20343;-75
2023/10/31 10:13:40;;;;;;;11.88;4.20;;;;;;;10.78;100.00;100198.28;5087769;28;20320;-75
2023/10/31 10:16:05;;;;;;;9.80;3.85;;;;;;;10.80;100.00;100206.91;5088359;28;20069;-75
2023/10/31 10:18:32;;;;;;;5.88;3.63;;;;;;;10.79;100.00;100208.69;5092486;28;20023;-74
2023/10/31 10:20:59;;;;;;;9.27;4.30;;;;;;;10.79;100.00;100211.31;5094592;28;20279;-75
2023/10/31 10:23:26;;;;;;;13.07;4.07;;;;;;;10.82;100.00;100220.78;5089933;28;20024;-75
2023/10/31 10:25:52;;;;;;;6.22;3.28;;;;;;;10.82;100.00;100218.16;5078373;28;20052;-75
2023/10/31 10:28:21;;;;;;;8.82;3.92;;;;;;;10.82;100.00;100221.63;5089234;28;20406;-75
2023/10/31 10:30:48;;;;;;;7.60;3.30;;;;;;;10.83;100.00;100218.09;5078174;28;20086;-75
2023/10/31 10:33:14;;;;;;;17.52;4.70;;;;;;;10.84;100.00;100229.41;5086193;28;20036;-75
2023/10/31 10:35:40;;;;;;;8.32;3.63;;;;;;;10.86;100.00;100231.03;5082064;28;20043;-75
2023/10/31 10:38:19;;;;;;;6.38;3.30;;;;;;;10.89;100.00;100223.00;5078375;28;20036;-75
2023/10/31 10:40:47;;;;;;;8.38;3.90;;;;;;;10.90;100.00;100223.88;5084700;28;20214;-75
2023/10/31 10:43:26;;;;;;;6.35;3.78;;;;;;;10.93;100.00;100223.69;5079405;28;20122;-75
2023/10/31 10:45:56;;;;;;;6.88;4.00;;;;;;;10.94;100.00;100217.53;5078604;28;20263;-75
2023/10/31 10:48:23;;;;;;;10.45;5.10;;;;;;;10.98;100.00;100220.84;5078829;28;20800;-75
2023/10/31 10:51:09;;;;;;;6.25;4.50;;;;;;;11.01;100.00;100233.78;5085788;28;20274;-75
2023/10/31 10:53:44;;;;;;;8.82;4.30;;;;;;;11.03;100.00;100238.00;5082922;28;20036;-75
2023/10/31 10:56:18;;;;;;;8.73;4.32;;;;;;;11.06;100.00;100239.59;5086511;28;20060;-75
2023/10/31 10:58:44;;;;;;;11.95;8.10;;;;;;;11.06;100.00;100243.09;5078796;28;20028;-75
2023/10/31 11:01:10;;;;;;;23.15;12.25;;;;;;;11.09;100.00;100244.69;5064680;28;20042;-75
2023/10/31 11:03:36;;;;;;;29.50;17.70;;;;;;;11.10;100.00;100244.63;5077798;28;20348;-75
2023/10/31 11:06:03;;;;;;;34.15;19.75;;;;;;;11.12;100.00;100250.63;5081866;28;20036;-75
2023/10/31 11:08:29;;;;;;;35.67;21.38;;;;;;;11.12;100.00;100248.00;5074297;28;20032;-75
2023/10/31 11:10:55;;;;;;;28.85;18.88;;;;;;;11.15;100.00;100249.59;5080972;28;20093;-75
2023/10/31 11:13:22;;;;;;;37.22;22.27;;;;;;;11.15;100.00;100241.75;5090044;28;20418;-75
2023/10/31 11:15:52;;;;;;;39.97;21.52;;;;;;;11.16;100.00;100250.47;5083274;28;20223;-75
2023/10/31 11:18:18;;;;;;;30.63;19.98;;;;;;;11.18;100.00;100241.59;5082333;28;20028;-75